EmailTwitter


Observations de surface / Canada / CYYZ (71624)

Régions: Québec | Canada | États-Unis | Europe | France | UK | Ailleurs
Station
Affichage
Infos & localisation pour CYYZ (71624) | Aide pour décoder les METARs

Observations prises le 2019-09-23 à 11H00 UTC à TORONTO A, ON (CYYZ)

Etat du ciel: partiellement nuageux.

Température: 22.0 Celsius

Point de rosée: 18.0 Celsius

Humidité relative: 78%

Indice Humidex: 28.

Vents: Sud-ouest à 15 km/h ou 8 noeuds.

Rafale du vent: 28 km/h ou 15 noeuds.

Pression au niveau moyen de la mer: 100.60 kilopascals.

Calage altimétrique: 100.61 kilopascals ou 29.71 pouces de mercure.

Visibilité horizontale: 15.00 milles terrestres ou 24.00 kilomètres.

Hauteur du plafond: 2896 mètres ( 9500 pieds ).

Observation METAR:

CYYZ 231100Z 23008G15KT 15SM SCT035 BKN095 BKN180 22/18 A2971 RMK SC3AC2AC2

SLP060 DENSITY ALT 1800FT=